sensor_id;sensor_type;location;lat;lon;timestamp;temperature;humidity
10662;DHT22;5379;51.034;7.006;2023-01-04T00:02:21;11.80;99.90
10662;DHT22;5379;51.034;7.006;2023-01-04T00:04:48;11.80;99.90
10662;DHT22;5379;51.034;7.006;2023-01-04T00:07:15;11.90;99.90
10662;DHT22;5379;51.034;7.006;2023-01-04T00:09:42;11.80;99.90
10662;DHT22;5379;51.034;7.006;2023-01-04T00:12:09;11.90;99.90
10662;DHT22;5379;51.034;7.006;2023-01-04T00:14:37;12.00;99.90
10662;DHT22;5379;51.034;7.006;2023-01-04T00:17:04;12.10;99.90
10662;DHT22;5379;51.034;7.006;2023-01-04T00:19:32;12.10;99.90
10662;DHT22;5379;51.034;7.006;2023-01-04T00:21:59;12.10;99.90
10662;DHT22;5379;51.034;7.006;2023-01-04T00:24:26;12.20;99.90
10662;DHT22;5379;51.034;7.006;2023-01-04T00:26:53;12.20;99.90
10662;DHT22;5379;51.034;7.006;2023-01-04T00:29:20;12.20;99.90
10662;DHT22;5379;51.034;7.006;2023-01-04T00:31:48;12.20;99.90
10662;DHT22;5379;51.034;7.006;2023-01-04T00:34:16;12.30;99.90
10662;DHT22;5379;51.034;7.006;2023-01-04T00:36:44;12.30;99.90
10662;DHT22;5379;51.034;7.006;2023-01-04T00:39:13;12.30;99.90
10662;DHT22;5379;51.034;7.006;2023-01-04T00:41:41;12.40;99.90
10662;DHT22;5379;51.034;7.006;2023-01-04T00:44:09;12.40;99.90
10662;DHT22;5379;51.034;7.006;2023-01-04T00:46:37;12.40;99.90
10662;DHT22;5379;51.034;7.006;2023-01-04T00:49:06;12.40;99.90
10662;DHT22;5379;51.034;7.006;2023-01-04T00:51:35;12.40;99.90
10662;DHT22;5379;51.034;7.006;2023-01-04T00:54:04;12.50;99.90
10662;DHT22;5379;51.034;7.006;2023-01-04T00:56:32;12.50;99.90
10662;DHT22;5379;51.034;7.006;2023-01-04T00:59:01;12.50;99.90
10662;DHT22;5379;51.034;7.006;2023-01-04T01:01:29;12.50;99.90
10662;DHT22;5379;51.034;7.006;2023-01-04T01:03:58;12.60;99.90
10662;DHT22;5379;51.034;7.006;2023-01-04T01:06:28;12.60;99.90
10662;DHT22;5379;51.034;7.006;2023-01-04T01:08:56;12.50;99.90
10662;DHT22;5379;51.034;7.006;2023-01-04T01:11:23;12.50;99.90
10662;DHT22;5379;51.034;7.006;2023-01-04T01:13:51;12.50;99.90
10662;DHT22;5379;51.034;7.006;2023-01-04T01:16:20;12.50;99.90
10662;DHT22;5379;51.034;7.006;2023-01-04T01:18:47;12.50;99.90
10662;DHT22;5379;51.034;7.006;2023-01-04T01:21:16;12.40;99.90
10662;DHT22;5379;51.034;7.006;2023-01-04T01:23:44;12.40;99.90
10662;DHT22;5379;51.034;7.006;2023-01-04T01:26:13;12.40;99.90
10662;DHT22;5379;51.034;7.006;2023-01-04T01:28:41;12.30;99.90
10662;DHT22;5379;51.034;7.006;2023-01-04T05:32:18;12.90;99.90
10662;DHT22;5379;51.034;7.006;2023-01-04T05:34:45;13.00;99.90
10662;DHT22;5379;51.034;7.006;2023-01-04T05:37:13;13.00;99.90
10662;DHT22;5379;51.034;7.006;2023-01-04T05:39:40;13.10;99.90
10662;DHT22;5379;51.034;7.006;2023-01-04T05:42:07;13.10;99.90
10662;DHT22;5379;51.034;7.006;2023-01-04T05:45:01;13.20;99.90
10662;DHT22;5379;51.034;7.006;2023-01-04T05:47:29;13.10;99.90
10662;DHT22;5379;51.034;7.006;2023-01-04T05:49:56;13.10;99.90
10662;DHT22;5379;51.034;7.006;2023-01-04T05:52:24;13.10;99.90
10662;DHT22;5379;51.034;7.006;2023-01-04T05:54:51;13.10;99.90
10662;DHT22;5379;51.034;7.006;2023-01-04T05:57:17;13.10;99.90
10662;DHT22;5379;51.034;7.006;2023-01-04T05:59:47;13.10;99.90
10662;DHT22;5379;51.034;7.006;2023-01-04T06:02:16;13.30;99.90
10662;DHT22;5379;51.034;7.006;2023-01-04T06:04:45;13.50;99.90
10662;DHT22;5379;51.034;7.006;2023-01-04T06:07:12;13.50;99.90
10662;DHT22;5379;51.034;7.006;2023-01-04T06:09:40;13.60;99.90
10662;DHT22;5379;51.034;7.006;2023-01-04T06:12:07;13.80;99.90
10662;DHT22;5379;51.034;7.006;2023-01-04T06:14:34;13.80;99.90
10662;DHT22;5379;51.034;7.006;2023-01-04T06:17:02;13.80;99.90
10662;DHT22;5379;51.034;7.006;2023-01-04T06:19:29;13.80;99.90
10662;DHT22;5379;51.034;7.006;2023-01-04T06:21:57;13.80;99.90
10662;DHT22;5379;51.034;7.006;2023-01-04T06:24:24;13.60;99.90
10662;DHT22;5379;51.034;7.006;2023-01-04T06:26:51;13.60;99.90
10662;DHT22;5379;51.034;7.006;2023-01-04T06:29:18;13.50;99.90
10662;DHT22;5379;51.034;7.006;2023-01-04T06:31:45;13.70;99.90
10662;DHT22;5379;51.034;7.006;2023-01-04T06:34:13;13.70;99.90
10662;DHT22;5379;51.034;7.006;2023-01-04T06:36:41;13.70;99.90
10662;DHT22;5379;51.034;7.006;2023-01-04T06:39:09;13.70;99.90
10662;DHT22;5379;51.034;7.006;2023-01-04T06:41:37;13.80;99.90
10662;DHT22;5379;51.034;7.006;2023-01-04T06:44:04;13.90;99.90
10662;DHT22;5379;51.034;7.006;2023-01-04T06:46:31;13.90;99.90
10662;DHT22;5379;51.034;7.006;2023-01-04T06:48:58;13.90;99.90
10662;DHT22;5379;51.034;7.006;2023-01-04T06:51:25;13.90;99.90
10662;DHT22;5379;51.034;7.006;2023-01-04T06:53:52;13.80;99.90
10662;DHT22;5379;51.034;7.006;2023-01-04T06:56:20;13.60;99.90
10662;DHT22;5379;51.034;7.006;2023-01-04T06:58:47;13.70;99.90
10662;DHT22;5379;51.034;7.006;2023-01-04T07:01:14;13.80;99.90
10662;DHT22;5379;51.034;7.006;2023-01-04T07:03:41;13.90;99.90
10662;DHT22;5379;51.034;7.006;2023-01-04T07:06:09;14.00;99.90
10662;DHT22;5379;51.034;7.006;2023-01-04T07:08:36;14.00;99.90
10662;DHT22;5379;51.034;7.006;2023-01-04T07:11:03;14.20;99.90
10662;DHT22;5379;51.034;7.006;2023-01-04T07:13:32;14.10;99.90
10662;DHT22;5379;51.034;7.006;2023-01-04T07:15:59;14.30;99.90
10662;DHT22;5379;51.034;7.006;2023-01-04T07:18:26;14.40;99.90
10662;DHT22;5379;51.034;7.006;2023-01-04T07:20:53;14.50;99.90
10662;DHT22;5379;51.034;7.006;2023-01-04T07:23:20;14.40;99.90
10662;DHT22;5379;51.034;7.006;2023-01-04T07:25:47;14.40;99.90
10662;DHT22;5379;51.034;7.006;2023-01-04T07:28:14;14.20;99.90
10662;DHT22;5379;51.034;7.006;2023-01-04T07:31:07;14.00;99.90
10662;DHT22;5379;51.034;7.006;2023-01-04T07:33:34;14.00;99.90
10662;DHT22;5379;51.034;7.006;2023-01-04T07:36:03;14.00;99.90
10662;DHT22;5379;51.034;7.006;2023-01-04T07:38:30;14.20;99.90
10662;DHT22;5379;51.034;7.006;2023-01-04T07:40:57;14.50;99.90
10662;DHT22;5379;51.034;7.006;2023-01-04T07:43:24;14.50;99.90
10662;DHT22;5379;51.034;7.006;2023-01-04T07:45:51;14.60;99.90
10662;DHT22;5379;51.034;7.006;2023-01-04T07:48:19;14.70;99.90
10662;DHT22;5379;51.034;7.006;2023-01-04T07:50:47;14.80;99.90
10662;DHT22;5379;51.034;7.006;2023-01-04T07:53:14;14.90;99.90
10662;DHT22;5379;51.034;7.006;2023-01-04T07:55:41;14.90;99.90
10662;DHT22;5379;51.034;7.006;2023-01-04T07:58:08;14.60;99.90
10662;DHT22;5379;51.034;7.006;2023-01-04T08:00:35;14.30;99.90
10662;DHT22;5379;51.034;7.006;2023-01-04T08:03:02;14.40;99.90
10662;DHT22;5379;51.034;7.006;2023-01-04T08:05:32;14.40;99.90
10662;DHT22;5379;51.034;7.006;2023-01-04T08:08:00;14.40;99.90
10662;DHT22;5379;51.034;7.006;2023-01-04T08:10:27;14.40;99.90
10662;DHT22;5379;51.034;7.006;2023-01-04T08:12:56;14.40;99.90
10662;DHT22;5379;51.034;7.006;2023-01-04T08:15:23;14.50;99.90
10662;DHT22;5379;51.034;7.006;2023-01-04T08:17:50;14.50;99.90
10662;DHT22;5379;51.034;7.006;2023-01-04T08:20:18;14.60;99.90
10662;DHT22;5379;51.034;7.006;2023-01-04T08:22:46;14.80;99.90
10662;DHT22;5379;51.034;7.006;2023-01-04T08:25:13;14.80;99.90
10662;DHT22;5379;51.034;7.006;2023-01-04T08:27:40;14.60;99.90
10662;DHT22;5379;51.034;7.006;2023-01-04T08:30:08;14.50;99.90
10662;DHT22;5379;51.034;7.006;2023-01-04T08:32:35;14.50;99.90
10662;DHT22;5379;51.034;7.006;2023-01-04T08:35:02;14.70;99.90
10662;DHT22;5379;51.034;7.006;2023-01-04T08:37:30;14.70;99.90
10662;DHT22;5379;51.034;7.006;2023-01-04T08:39:58;14.70;99.90
10662;DHT22;5379;51.034;7.006;2023-01-04T08:42:25;14.80;99.90
10662;DHT22;5379;51.034;7.006;2023-01-04T08:44:52;14.80;99.90
10662;DHT22;5379;51.034;7.006;2023-01-04T08:47:19;14.80;99.90
10662;DHT22;5379;51.034;7.006;2023-01-04T08:49:46;14.90;99.90
10662;DHT22;5379;51.034;7.006;2023-01-04T08:52:13;14.80;99.90
10662;DHT22;5379;51.034;7.006;2023-01-04T08:54:40;14.60;99.90
10662;DHT22;5379;51.034;7.006;2023-01-04T08:57:08;14.60;99.90
10662;DHT22;5379;51.034;7.006;2023-01-04T08:59:35;14.60;99.90
10662;DHT22;5379;51.034;7.006;2023-01-04T09:02:02;14.80;99.90
10662;DHT22;5379;51.034;7.006;2023-01-04T09:04:29;14.80;99.90
10662;DHT22;5379;51.034;7.006;2023-01-04T09:06:56;14.80;99.90
10662;DHT22;5379;51.034;7.006;2023-01-04T09:09:23;14.90;99.90
10662;DHT22;5379;51.034;7.006;2023-01-04T09:11:50;15.10;99.90
10662;DHT22;5379;51.034;7.006;2023-01-04T09:14:19;15.20;99.90
10662;DHT22;5379;51.034;7.006;2023-01-04T09:16:46;15.10;99.90
10662;DHT22;5379;51.034;7.006;2023-01-04T09:19:13;15.10;99.90
10662;DHT22;5379;51.034;7.006;2023-01-04T09:21:40;14.90;99.90
10662;DHT22;5379;51.034;7.006;2023-01-04T09:24:07;14.90;99.90
10662;DHT22;5379;51.034;7.006;2023-01-04T09:26:33;14.90;99.90
10662;DHT22;5379;51.034;7.006;2023-01-04T09:29:00;15.00;99.90
10662;DHT22;5379;51.034;7.006;2023-01-04T09:31:29;15.10;99.90
10662;DHT22;5379;51.034;7.006;2023-01-04T09:33:57;15.10;99.90
10662;DHT22;5379;51.034;7.006;2023-01-04T09:36:24;15.20;99.90
10662;DHT22;5379;51.034;7.006;2023-01-04T09:38:52;15.20;99.90
10662;DHT22;5379;51.034;7.006;2023-01-04T09:41:23;15.20;99.90
10662;DHT22;5379;51.034;7.006;2023-01-04T09:43:53;15.40;99.90
10662;DHT22;5379;51.034;7.006;2023-01-04T09:46:27;15.50;99.90
10662;DHT22;5379;51.034;7.006;2023-01-04T09:49:10;15.40;99.90
10662;DHT22;5379;51.034;7.006;2023-01-04T09:51:42;15.40;99.90
10662;DHT22;5379;51.034;7.006;2023-01-04T09:54:14;15.40;99.90
10662;DHT22;5379;51.034;7.006;2023-01-04T09:56:48;15.30;99.90
10662;DHT22;5379;51.034;7.006;2023-01-04T09:59:16;15.30;99.90
10662;DHT22;5379;51.034;7.006;2023-01-04T10:01:50;15.30;99.90
10662;DHT22;5379;51.034;7.006;2023-01-04T10:04:24;15.50;99.90
10662;DHT22;5379;51.034;7.006;2023-01-04T10:06:53;15.60;99.90
10662;DHT22;5379;51.034;7.006;2023-01-04T10:09:20;15.70;99.90
10662;DHT22;5379;51.034;7.006;2023-01-04T10:12:00;15.80;99.90
10662;DHT22;5379;51.034;7.006;2023-01-04T10:14:43;16.00;99.90
10662;DHT22;5379;51.034;7.006;2023-01-04T10:17:22;16.10;99.90
10662;DHT22;5379;51.034;7.006;2023-01-04T10:20:07;16.00;99.90
10662;DHT22;5379;51.034;7.006;2023-01-04T10:22:43;15.70;99.90
10662;DHT22;5379;51.034;7.006;2023-01-04T10:25:22;15.80;99.90
10662;DHT22;5379;51.034;7.006;2023-01-04T10:28:01;15.80;99.90
10662;DHT22;5379;51.034;7.006;2023-01-04T10:30:39;15.80;99.90
10662;DHT22;5379;51.034;7.006;2023-01-04T10:33:11;16.00;99.90
10662;DHT22;5379;51.034;7.006;2023-01-04T10:35:41;16.00;99.90
10662;DHT22;5379;51.034;7.006;2023-01-04T10:38:14;16.30;99.90
10662;DHT22;5379;51.034;7.006;2023-01-04T10:40:43;16.20;99.90
10662;DHT22;5379;51.034;7.006;2023-01-04T10:43:17;16.00;99.90
10662;DHT22;5379;51.034;7.006;2023-01-04T10:45:52;15.90;99.90
10662;DHT22;5379;51.034;7.006;2023-01-04T10:48:28;15.80;99.90
10662;DHT22;5379;51.034;7.006;2023-01-04T10:51:01;15.70;99.90
10662;DHT22;5379;51.034;7.006;2023-01-04T10:53:32;15.60;99.90
10662;DHT22;5379;51.034;7.006;2023-01-04T10:56:07;15.40;99.90
10662;DHT22;5379;51.034;7.006;2023-01-04T10:58:37;15.40;99.90
10662;DHT22;5379;51.034;7.006;2023-01-04T11:01:08;15.50;99.90
10662;DHT22;5379;51.034;7.006;2023-01-04T11:03:43;15.50;99.90
10662;DHT22;5379;51.034;7.006;2023-01-04T11:06:15;15.60;99.90
10662;DHT22;5379;51.034;7.006;2023-01-04T11:08:46;15.60;99.90
10662;DHT22;5379;51.034;7.006;2023-01-04T11:11:19;15.60;99.90
10662;DHT22;5379;51.034;7.006;2023-01-04T11:13:49;15.60;99.90
10662;DHT22;5379;51.034;7.006;2023-01-04T11:16:16;15.60;99.90
10662;DHT22;5379;51.034;7.006;2023-01-04T11:18:45;15.60;99.90
10662;DHT22;5379;51.034;7.006;2023-01-04T11:21:19;15.50;99.90
10662;DHT22;5379;51.034;7.006;2023-01-04T11:23:48;15.20;99.90
10662;DHT22;5379;51.034;7.006;2023-01-04T11:26:18;15.10;99.90
10662;DHT22;5379;51.034;7.006;2023-01-04T11:28:50;15.00;99.90
10662;DHT22;5379;51.034;7.006;2023-01-04T11:31:23;15.10;99.90
10662;DHT22;5379;51.034;7.006;2023-01-04T11:33:54;15.10;99.90
10662;DHT22;5379;51.034;7.006;2023-01-04T11:36:42;15.10;99.90
10662;DHT22;5379;51.034;7.006;2023-01-04T11:39:17;15.10;99.90
10662;DHT22;5379;51.034;7.006;2023-01-04T11:41:53;15.20;99.90
10662;DHT22;5379;51.034;7.006;2023-01-04T11:44:21;15.20;99.90
10662;DHT22;5379;51.034;7.006;2023-01-04T11:47:04;15.20;99.90
10662;DHT22;5379;51.034;7.006;2023-01-04T11:49:33;15.30;99.90
10662;DHT22;5379;51.034;7.006;2023-01-04T11:52:03;15.20;99.90
10662;DHT22;5379;51.034;7.006;2023-01-04T11:54:33;15.20;99.90
10662;DHT22;5379;51.034;7.006;2023-01-04T11:57:01;15.20;99.90
10662;DHT22;5379;51.034;7.006;2023-01-04T11:59:28;15.20;99.90
10662;DHT22;5379;51.034;7.006;2023-01-04T12:02:25;15.20;99.90
10662;DHT22;5379;51.034;7.006;2023-01-04T12:04:52;15.30;99.90
10662;DHT22;5379;51.034;7.006;2023-01-04T12:07:28;15.40;99.90
10662;DHT22;5379;51.034;7.006;2023-01-04T12:09:58;15.40;99.90
10662;DHT22;5379;51.034;7.006;2023-01-04T12:12:29;15.50;99.90
10662;DHT22;5379;51.034;7.006;2023-01-04T12:15:01;15.50;99.90
10662;DHT22;5379;51.034;7.006;2023-01-04T12:17:35;15.60;99.90
10662;DHT22;5379;51.034;7.006;2023-01-04T12:20:13;15.50;99.90
10662;DHT22;5379;51.034;7.006;2023-01-04T12:22:42;15.30;99.90
10662;DHT22;5379;51.034;7.006;2023-01-04T12:25:24;15.20;99.90
10662;DHT22;5379;51.034;7.006;2023-01-04T12:27:53;15.40;99.90
10662;DHT22;5379;51.034;7.006;2023-01-04T12:30:35;15.60;99.90
10662;DHT22;5379;51.034;7.006;2023-01-04T12:33:39;15.60;99.90
10662;DHT22;5379;51.034;7.006;2023-01-04T12:36:07;15.70;99.90
10662;DHT22;5379;51.034;7.006;2023-01-04T12:42:19;16.30;99.90
10662;DHT22;5379;51.034;7.006;2023-01-04T12:45:21;16.70;99.90
10662;DHT22;5379;51.034;7.006;2023-01-04T12:47:50;16.80;99.90
10662;DHT22;5379;51.034;7.006;2023-01-04T12:54:00;17.10;99.90
10662;DHT22;5379;51.034;7.006;2023-01-04T12:59:35;18.10;99.90
10662;DHT22;5379;51.034;7.006;2023-01-04T13:02:22;18.40;99.90
10662;DHT22;5379;51.034;7.006;2023-01-04T13:04:51;18.70;99.90
10662;DHT22;5379;51.034;7.006;2023-01-04T13:07:21;18.90;99.90
10662;DHT22;5379;51.034;7.006;2023-01-04T13:09:53;19.30;99.90
10662;DHT22;5379;51.034;7.006;2023-01-04T13:12:40;19.50;99.90
10662;DHT22;5379;51.034;7.006;2023-01-04T13:15:17;19.80;99.90
10662;DHT22;5379;51.034;7.006;2023-01-04T13:17:46;20.10;99.90
10662;DHT22;5379;51.034;7.006;2023-01-04T13:20:15;19.80;99.90
10662;DHT22;5379;51.034;7.006;2023-01-04T13:22:48;19.60;99.90
10662;DHT22;5379;51.034;7.006;2023-01-04T13:25:17;19.90;99.90
10662;DHT22;5379;51.034;7.006;2023-01-04T13:27:58;19.80;99.90
10662;DHT22;5379;51.034;7.006;2023-01-04T13:30:35;20.20;99.90
10662;DHT22;5379;51.034;7.006;2023-01-04T13:33:10;20.00;99.90
10662;DHT22;5379;51.034;7.006;2023-01-04T13:35:40;20.40;99.90
10662;DHT22;5379;51.034;7.006;2023-01-04T13:38:12;20.20;99.90
10662;DHT22;5379;51.034;7.006;2023-01-04T13:40:43;20.40;99.90
10662;DHT22;5379;51.034;7.006;2023-01-04T13:46:12;20.70;99.90
10662;DHT22;5379;51.034;7.006;2023-01-04T13:48:42;20.50;99.90
10662;DHT22;5379;51.034;7.006;2023-01-04T13:51:14;20.40;99.90
10662;DHT22;5379;51.034;7.006;2023-01-04T13:53:41;20.20;99.90
10662;DHT22;5379;51.034;7.006;2023-01-04T13:56:19;20.20;99.90
10662;DHT22;5379;51.034;7.006;2023-01-04T13:58:47;20.20;99.90
10662;DHT22;5379;51.034;7.006;2023-01-04T14:01:18;20.30;99.90
10662;DHT22;5379;51.034;7.006;2023-01-04T14:03:48;20.50;99.90
10662;DHT22;5379;51.034;7.006;2023-01-04T14:06:22;20.60;99.90
10662;DHT22;5379;51.034;7.006;2023-01-04T14:08:52;21.30;99.90
10662;DHT22;5379;51.034;7.006;2023-01-04T14:11:23;20.90;99.90
10662;DHT22;5379;51.034;7.006;2023-01-04T14:17:22;20.90;99.90
10662;DHT22;5379;51.034;7.006;2023-01-04T14:19:53;20.90;99.90
10662;DHT22;5379;51.034;7.006;2023-01-04T14:22:26;20.40;99.90
10662;DHT22;5379;51.034;7.006;2023-01-04T14:24:54;19.20;99.90
10662;DHT22;5379;51.034;7.006;2023-01-04T14:27:28;19.40;99.90
10662;DHT22;5379;51.034;7.006;2023-01-04T14:29:55;18.80;99.90
10662;DHT22;5379;51.034;7.006;2023-01-04T14:32:24;18.40;99.90
10662;DHT22;5379;51.034;7.006;2023-01-04T14:34:53;18.80;99.90
10662;DHT22;5379;51.034;7.006;2023-01-04T14:37:20;19.00;99.90
10662;DHT22;5379;51.034;7.006;2023-01-04T14:39:47;18.40;99.90
10662;DHT22;5379;51.034;7.006;2023-01-04T14:42:23;18.90;99.90
10662;DHT22;5379;51.034;7.006;2023-01-04T14:44:51;19.40;99.90
10662;DHT22;5379;51.034;7.006;2023-01-04T14:47:18;19.40;99.90
10662;DHT22;5379;51.034;7.006;2023-01-04T14:49:46;19.50;99.90
10662;DHT22;5379;51.034;7.006;2023-01-04T14:52:20;19.00;99.90
10662;DHT22;5379;51.034;7.006;2023-01-04T14:54:48;18.80;99.90
10662;DHT22;5379;51.034;7.006;2023-01-04T14:57:15;19.50;99.90
10662;DHT22;5379;51.034;7.006;2023-01-04T14:59:42;20.10;99.90
10662;DHT22;5379;51.034;7.006;2023-01-04T15:02:10;20.40;99.90
10662;DHT22;5379;51.034;7.006;2023-01-04T15:04:38;20.50;99.90
10662;DHT22;5379;51.034;7.006;2023-01-04T15:09:48;20.50;99.90
10662;DHT22;5379;51.034;7.006;2023-01-04T15:12:15;20.50;99.90
10662;DHT22;5379;51.034;7.006;2023-01-04T15:14:42;20.40;99.90
10662;DHT22;5379;51.034;7.006;2023-01-04T15:17:09;20.30;99.90
10662;DHT22;5379;51.034;7.006;2023-01-04T15:19:37;20.40;99.90
10662;DHT22;5379;51.034;7.006;2023-01-04T15:22:04;20.40;99.90
10662;DHT22;5379;51.034;7.006;2023-01-04T15:24:32;20.40;99.90
10662;DHT22;5379;51.034;7.006;2023-01-04T15:26:59;20.60;99.90
10662;DHT22;5379;51.034;7.006;2023-01-04T15:29:26;20.50;99.90
10662;DHT22;5379;51.034;7.006;2023-01-04T15:31:53;20.40;99.90
10662;DHT22;5379;51.034;7.006;2023-01-04T15:34:20;20.50;99.90
10662;DHT22;5379;51.034;7.006;2023-01-04T15:36:49;20.90;99.90
10662;DHT22;5379;51.034;7.006;2023-01-04T15:39:16;21.10;99.90
10662;DHT22;5379;51.034;7.006;2023-01-04T15:41:45;21.00;99.90
10662;DHT22;5379;51.034;7.006;2023-01-04T15:44:29;21.00;99.90
10662;DHT22;5379;51.034;7.006;2023-01-04T15:46:56;20.80;99.90
10662;DHT22;5379;51.034;7.006;2023-01-04T15:49:24;20.90;99.90
10662;DHT22;5379;51.034;7.006;2023-01-04T15:51:51;21.00;99.90
10662;DHT22;5379;51.034;7.006;2023-01-04T15:54:18;20.80;99.90
10662;DHT22;5379;51.034;7.006;2023-01-04T15:56:47;21.10;99.90
10662;DHT22;5379;51.034;7.006;2023-01-04T15:59:14;21.10;99.90
10662;DHT22;5379;51.034;7.006;2023-01-04T16:01:41;21.10;99.90
10662;DHT22;5379;51.034;7.006;2023-01-04T16:04:08;20.90;99.90
10662;DHT22;5379;51.034;7.006;2023-01-04T16:06:36;20.90;99.90
10662;DHT22;5379;51.034;7.006;2023-01-04T16:09:03;19.70;99.90
10662;DHT22;5379;51.034;7.006;2023-01-04T16:11:31;18.90;99.90
10662;DHT22;5379;51.034;7.006;2023-01-04T16:13:59;19.10;99.90
10662;DHT22;5379;51.034;7.006;2023-01-04T16:16:27;19.30;99.90
10662;DHT22;5379;51.034;7.006;2023-01-04T16:18:55;19.80;99.90
10662;DHT22;5379;51.034;7.006;2023-01-04T16:21:24;19.70;99.90
10662;DHT22;5379;51.034;7.006;2023-01-04T16:23:53;20.10;99.90
10662;DHT22;5379;51.034;7.006;2023-01-04T16:26:20;20.10;99.90
10662;DHT22;5379;51.034;7.006;2023-01-04T16:28:48;19.70;99.90
10662;DHT22;5379;51.034;7.006;2023-01-04T16:31:18;19.30;99.90
10662;DHT22;5379;51.034;7.006;2023-01-04T16:33:45;18.80;99.90
10662;DHT22;5379;51.034;7.006;2023-01-04T16:36:14;18.60;99.90
10662;DHT22;5379;51.034;7.006;2023-01-04T16:38:43;18.00;99.90
10662;DHT22;5379;51.034;7.006;2023-01-04T16:41:12;18.00;99.90
10662;DHT22;5379;51.034;7.006;2023-01-04T16:43:42;17.90;99.90
10662;DHT22;5379;51.034;7.006;2023-01-04T16:46:17;18.00;99.90
10662;DHT22;5379;51.034;7.006;2023-01-04T16:48:46;18.40;99.90
10662;DHT22;5379;51.034;7.006;2023-01-04T16:51:14;18.80;99.90
10662;DHT22;5379;51.034;7.006;2023-01-04T16:53:41;19.40;99.90
10662;DHT22;5379;51.034;7.006;2023-01-04T16:56:12;19.90;99.90
10662;DHT22;5379;51.034;7.006;2023-01-04T16:58:40;19.90;99.90
10662;DHT22;5379;51.034;7.006;2023-01-04T17:01:11;19.40;99.90
10662;DHT22;5379;51.034;7.006;2023-01-04T17:03:41;18.90;99.90
10662;DHT22;5379;51.034;7.006;2023-01-04T17:06:10;19.20;99.90
10662;DHT22;5379;51.034;7.006;2023-01-04T17:08:37;18.80;99.90
10662;DHT22;5379;51.034;7.006;2023-01-04T17:11:06;19.30;99.90
10662;DHT22;5379;51.034;7.006;2023-01-04T17:13:34;19.40;99.90
10662;DHT22;5379;51.034;7.006;2023-01-04T17:16:02;19.30;99.90
10662;DHT22;5379;51.034;7.006;2023-01-04T17:18:29;19.70;99.90
10662;DHT22;5379;51.034;7.006;2023-01-04T17:20:59;19.10;99.90
10662;DHT22;5379;51.034;7.006;2023-01-04T17:23:28;18.90;99.90
10662;DHT22;5379;51.034;7.006;2023-01-04T17:26:00;18.90;99.90
10662;DHT22;5379;51.034;7.006;2023-01-04T17:28:27;19.60;99.90
10662;DHT22;5379;51.034;7.006;2023-01-04T17:30:54;19.90;99.90
10662;DHT22;5379;51.034;7.006;2023-01-04T17:33:21;20.00;99.90
10662;DHT22;5379;51.034;7.006;2023-01-04T17:35:49;20.40;99.90
10662;DHT22;5379;51.034;7.006;2023-01-04T17:38:17;20.10;99.90
10662;DHT22;5379;51.034;7.006;2023-01-04T17:40:44;20.50;99.90
10662;DHT22;5379;51.034;7.006;2023-01-04T17:43:11;20.60;99.90
10662;DHT22;5379;51.034;7.006;2023-01-04T17:45:38;20.60;99.90
10662;DHT22;5379;51.034;7.006;2023-01-04T17:48:06;20.30;99.90
10662;DHT22;5379;51.034;7.006;2023-01-04T17:50:33;20.60;99.90
10662;DHT22;5379;51.034;7.006;2023-01-04T17:53:00;20.70;99.90
10662;DHT22;5379;51.034;7.006;2023-01-04T17:55:28;20.80;99.90
10662;DHT22;5379;51.034;7.006;2023-01-04T17:57:55;20.70;99.90
10662;DHT22;5379;51.034;7.006;2023-01-04T18:00:22;20.80;99.90
10662;DHT22;5379;51.034;7.006;2023-01-04T18:02:49;20.60;99.90
10662;DHT22;5379;51.034;7.006;2023-01-04T18:05:16;20.70;99.90
10662;DHT22;5379;51.034;7.006;2023-01-04T18:07:43;20.60;99.90
10662;DHT22;5379;51.034;7.006;2023-01-04T18:10:10;20.80;99.90
10662;DHT22;5379;51.034;7.006;2023-01-04T18:12:41;20.90;99.90
10662;DHT22;5379;51.034;7.006;2023-01-04T18:15:09;20.70;99.90
10662;DHT22;5379;51.034;7.006;2023-01-04T18:17:36;20.70;99.90
10662;DHT22;5379;51.034;7.006;2023-01-04T18:20:04;20.90;99.90
10662;DHT22;5379;51.034;7.006;2023-01-04T18:22:32;20.90;99.90
10662;DHT22;5379;51.034;7.006;2023-01-04T18:24:59;20.70;99.90
10662;DHT22;5379;51.034;7.006;2023-01-04T18:27:28;20.90;99.90
10662;DHT22;5379;51.034;7.006;2023-01-04T18:29:57;20.70;99.90
10662;DHT22;5379;51.034;7.006;2023-01-04T18:32:24;20.70;99.90
10662;DHT22;5379;51.034;7.006;2023-01-04T18:34:52;20.80;99.90
10662;DHT22;5379;51.034;7.006;2023-01-04T18:37:19;20.80;99.90
10662;DHT22;5379;51.034;7.006;2023-01-04T18:39:46;20.80;99.90
10662;DHT22;5379;51.034;7.006;2023-01-04T18:42:13;20.90;99.90
10662;DHT22;5379;51.034;7.006;2023-01-04T18:44:40;21.20;99.90
10662;DHT22;5379;51.034;7.006;2023-01-04T18:47:09;20.80;99.90
10662;DHT22;5379;51.034;7.006;2023-01-04T18:49:36;20.60;99.90
10662;DHT22;5379;51.034;7.006;2023-01-04T18:52:03;20.40;99.90
10662;DHT22;5379;51.034;7.006;2023-01-04T18:54:31;20.60;99.90
10662;DHT22;5379;51.034;7.006;2023-01-04T18:56:58;20.50;99.90
10662;DHT22;5379;51.034;7.006;2023-01-04T18:59:24;20.60;99.90
10662;DHT22;5379;51.034;7.006;2023-01-04T19:01:51;20.70;99.90
10662;DHT22;5379;51.034;7.006;2023-01-04T19:04:20;20.50;99.90
10662;DHT22;5379;51.034;7.006;2023-01-04T19:06:47;20.70;99.90
10662;DHT22;5379;51.034;7.006;2023-01-04T19:09:14;20.60;99.90
10662;DHT22;5379;51.034;7.006;2023-01-04T19:11:41;20.70;99.90
10662;DHT22;5379;51.034;7.006;2023-01-04T19:14:10;20.80;99.90
10662;DHT22;5379;51.034;7.006;2023-01-04T19:16:37;20.80;99.90
10662;DHT22;5379;51.034;7.006;2023-01-04T19:19:04;20.60;99.90
10662;DHT22;5379;51.034;7.006;2023-01-04T19:21:32;20.40;99.90
10662;DHT22;5379;51.034;7.006;2023-01-04T19:23:59;20.50;99.90
10662;DHT22;5379;51.034;7.006;2023-01-04T19:26:26;20.80;99.90
10662;DHT22;5379;51.034;7.006;2023-01-04T19:28:53;20.90;99.90
10662;DHT22;5379;51.034;7.006;2023-01-04T19:31:21;21.00;99.90
10662;DHT22;5379;51.034;7.006;2023-01-04T19:33:48;20.70;99.90
10662;DHT22;5379;51.034;7.006;2023-01-04T19:36:17;20.70;99.90
10662;DHT22;5379;51.034;7.006;2023-01-04T19:38:45;20.80;98.60
10662;DHT22;5379;51.034;7.006;2023-01-04T19:41:15;20.80;99.90
10662;DHT22;5379;51.034;7.006;2023-01-04T19:43:45;20.70;99.90
10662;DHT22;5379;51.034;7.006;2023-01-04T19:46:12;20.80;99.90
10662;DHT22;5379;51.034;7.006;2023-01-04T19:48:39;20.70;99.90
10662;DHT22;5379;51.034;7.006;2023-01-04T19:51:08;20.70;99.60
10662;DHT22;5379;51.034;7.006;2023-01-04T19:53:36;20.90;99.90
10662;DHT22;5379;51.034;7.006;2023-01-04T19:56:06;21.30;99.90
10662;DHT22;5379;51.034;7.006;2023-01-04T19:58:33;21.40;99.90
10662;DHT22;5379;51.034;7.006;2023-01-04T20:01:00;20.90;99.90
10662;DHT22;5379;51.034;7.006;2023-01-04T20:03:27;20.80;99.90
10662;DHT22;5379;51.034;7.006;2023-01-04T20:05:54;20.50;99.90
10662;DHT22;5379;51.034;7.006;2023-01-04T20:08:26;20.60;99.90
10662;DHT22;5379;51.034;7.006;2023-01-04T20:10:53;20.50;99.90
10662;DHT22;5379;51.034;7.006;2023-01-04T20:13:21;20.30;99.90
10662;DHT22;5379;51.034;7.006;2023-01-04T20:15:49;20.10;99.90
10662;DHT22;5379;51.034;7.006;2023-01-04T20:18:16;20.50;99.90
10662;DHT22;5379;51.034;7.006;2023-01-04T20:20:44;20.60;99.90